Reinersville, Ohio
Current Conditions -  °F | °C
As of 1:53 PM on Thursday 27 Nov 2014 (Local Time) from KZZV Reporting Station
Overcast Overcast  
Wind Chill: 21°   Ceiling: 2000
Heat Index: 31°   Visibility: 10mi
Dew Point: 24°   Wind: 13mph
Humidity: 76%   Direction: 300°WNW
Pressure: 30.16"   Gusts: NA
Location:  39.6878°N, 81.7727°W
Report Text: KZZV 271853Z AUTO 30011KT 10SM OVC020 M01/M04 A3016 RMK AO2 SNB04E27 SLP223 P0000 T10061044
Loading
Personal Weather Stations






























Interactive Weather Map New forecast layout! Learn more

10-Day Weather Forecast

Advertisements
Track Severe Weather on mobile